Venice, Florida
Current Conditions -  °F | °C
As of 11:15 AM on Wednesday 26 Nov 2014 (Local Time) from KVNC Reporting Station
Broken Clouds Broken Clouds  
Wind Chill: 57°   Ceiling: 2800
Heat Index: 57°   Visibility: 10mi
Dew Point: 55°   Wind: 12mph
Humidity: 94%   Direction: 360°N
Pressure: 30.18"   Gusts: NA
Location:  27.1°N, 82.45°W
Report Text: KVNC 261615Z AUTO 36010KT 10SM FEW015 SCT020 BKN028 14/13 A3018 RMK AO2 TSNO
Loading
Personal Weather Stations






























Interactive Weather Map New forecast layout! Learn more

10-Day Weather Forecast

Advertisements
Track Severe Weather on mobile